sensor_id;sensor_type;location;lat;lon;timestamp;P1;durP1;ratioP1;P2;durP2;ratioP2
27051;SDS011;14601;49.358;8.256;2022-07-21T00:00:05;20.20;;;18.10;;
27051;SDS011;14601;49.358;8.256;2022-07-21T00:03:08;20.98;;;18.52;;
27051;SDS011;14601;49.358;8.256;2022-07-21T00:06:10;21.50;;;18.33;;
27051;SDS011;14601;49.358;8.256;2022-07-21T00:09:12;23.63;;;19.80;;
27051;SDS011;14601;49.358;8.256;2022-07-21T00:12:15;21.40;;;19.10;;
27051;SDS011;14601;49.358;8.256;2022-07-21T00:15:19;23.20;;;20.83;;
27051;SDS011;14601;49.358;8.256;2022-07-21T00:18:23;23.52;;;21.13;;
27051;SDS011;14601;49.358;8.256;2022-07-21T00:21:25;20.95;;;17.70;;
27051;SDS011;14601;49.358;8.256;2022-07-21T00:24:27;20.10;;;18.20;;
27051;SDS011;14601;49.358;8.256;2022-07-21T00:27:28;21.42;;;19.23;;
27051;SDS011;14601;49.358;8.256;2022-07-21T00:30:32;22.92;;;20.45;;
27051;SDS011;14601;49.358;8.256;2022-07-21T00:33:34;22.50;;;19.08;;
27051;SDS011;14601;49.358;8.256;2022-07-21T00:36:36;21.88;;;19.77;;
27051;SDS011;14601;49.358;8.256;2022-07-21T00:39:38;21.58;;;19.48;;
27051;SDS011;14601;49.358;8.256;2022-07-21T00:42:40;21.30;;;19.20;;
27051;SDS011;14601;49.358;8.256;2022-07-21T00:45:44;23.27;;;20.80;;
27051;SDS011;14601;49.358;8.256;2022-07-21T00:48:46;23.85;;;21.30;;
27051;SDS011;14601;49.358;8.256;2022-07-21T00:51:48;25.13;;;22.63;;
27051;SDS011;14601;49.358;8.256;2022-07-21T00:54:50;24.50;;;21.77;;
27051;SDS011;14601;49.358;8.256;2022-07-21T00:57:53;26.55;;;21.80;;
27051;SDS011;14601;49.358;8.256;2022-07-21T01:00:56;28.83;;;22.13;;
27051;SDS011;14601;49.358;8.256;2022-07-21T01:03:58;24.25;;;21.73;;
27051;SDS011;14601;49.358;8.256;2022-07-21T01:07:00;23.90;;;21.40;;
27051;SDS011;14601;49.358;8.256;2022-07-21T01:10:04;23.92;;;21.33;;
27051;SDS011;14601;49.358;8.256;2022-07-21T01:13:06;25.92;;;21.45;;
27051;SDS011;14601;49.358;8.256;2022-07-21T01:16:09;24.48;;;21.98;;
27051;SDS011;14601;49.358;8.256;2022-07-21T01:19:11;23.10;;;20.90;;
27051;SDS011;14601;49.358;8.256;2022-07-21T01:22:15;26.15;;;22.27;;
27051;SDS011;14601;49.358;8.256;2022-07-21T01:25:17;26.15;;;22.35;;
27051;SDS011;14601;49.358;8.256;2022-07-21T01:28:20;25.05;;;22.48;;
27051;SDS011;14601;49.358;8.256;2022-07-21T01:31:22;23.90;;;21.60;;
27051;SDS011;14601;49.358;8.256;2022-07-21T01:34:24;24.23;;;21.65;;
27051;SDS011;14601;49.358;8.256;2022-07-21T01:37:28;26.42;;;23.63;;
27051;SDS011;14601;49.358;8.256;2022-07-21T01:40:31;25.92;;;22.33;;
27051;SDS011;14601;49.358;8.256;2022-07-21T01:43:56;26.58;;;22.10;;
27051;SDS011;14601;49.358;8.256;2022-07-21T01:47:00;27.45;;;22.50;;
27051;SDS011;14601;49.358;8.256;2022-07-21T01:50:02;27.20;;;23.10;;
27051;SDS011;14601;49.358;8.256;2022-07-21T01:53:06;24.63;;;22.02;;
27051;SDS011;14601;49.358;8.256;2022-07-21T01:56:08;25.95;;;23.20;;
27051;SDS011;14601;49.358;8.256;2022-07-21T01:59:09;24.88;;;22.38;;
27051;SDS011;14601;49.358;8.256;2022-07-21T02:02:12;25.05;;;22.45;;
27051;SDS011;14601;49.358;8.256;2022-07-21T02:05:14;24.55;;;22.08;;
27051;SDS011;14601;49.358;8.256;2022-07-21T02:08:17;25.83;;;22.98;;
27051;SDS011;14601;49.358;8.256;2022-07-21T02:11:19;26.27;;;23.48;;
27051;SDS011;14601;49.358;8.256;2022-07-21T02:14:21;24.90;;;22.50;;
27051;SDS011;14601;49.358;8.256;2022-07-21T02:17:23;26.20;;;23.45;;
27051;SDS011;14601;49.358;8.256;2022-07-21T02:20:25;26.65;;;24.02;;
27051;SDS011;14601;49.358;8.256;2022-07-21T02:23:29;28.05;;;25.05;;
27051;SDS011;14601;49.358;8.256;2022-07-21T02:26:31;26.48;;;23.80;;
27051;SDS011;14601;49.358;8.256;2022-07-21T02:29:33;28.05;;;25.08;;
27051;SDS011;14601;49.358;8.256;2022-07-21T02:32:35;28.30;;;25.25;;
27051;SDS011;14601;49.358;8.256;2022-07-21T02:35:37;26.85;;;24.25;;
27051;SDS011;14601;49.358;8.256;2022-07-21T02:38:41;27.48;;;22.60;;
27051;SDS011;14601;49.358;8.256;2022-07-21T02:41:43;24.88;;;22.15;;
27051;SDS011;14601;49.358;8.256;2022-07-21T02:44:45;25.30;;;22.50;;
27051;SDS011;14601;49.358;8.256;2022-07-21T02:47:47;25.58;;;22.90;;
27051;SDS011;14601;49.358;8.256;2022-07-21T02:50:50;23.65;;;21.35;;
27051;SDS011;14601;49.358;8.256;2022-07-21T02:53:53;22.13;;;19.85;;
27051;SDS011;14601;49.358;8.256;2022-07-21T02:56:55;22.15;;;20.00;;
27051;SDS011;14601;49.358;8.256;2022-07-21T02:59:57;20.63;;;18.63;;
27051;SDS011;14601;49.358;8.256;2022-07-21T03:02:58;20.25;;;17.58;;
27051;SDS011;14601;49.358;8.256;2022-07-21T03:06:00;20.27;;;18.10;;
27051;SDS011;14601;49.358;8.256;2022-07-21T03:09:04;20.38;;;17.88;;
27051;SDS011;14601;49.358;8.256;2022-07-21T03:12:06;17.58;;;15.88;;
27051;SDS011;14601;49.358;8.256;2022-07-21T03:15:08;19.27;;;17.23;;
27051;SDS011;14601;49.358;8.256;2022-07-21T03:18:11;18.63;;;16.77;;
27051;SDS011;14601;49.358;8.256;2022-07-21T03:21:13;19.83;;;17.70;;
27051;SDS011;14601;49.358;8.256;2022-07-21T03:24:16;19.70;;;17.80;;
27051;SDS011;14601;49.358;8.256;2022-07-21T03:27:18;20.40;;;18.42;;
27051;SDS011;14601;49.358;8.256;2022-07-21T03:30:20;19.27;;;17.38;;
27051;SDS011;14601;49.358;8.256;2022-07-21T03:33:23;19.30;;;16.70;;
27051;SDS011;14601;49.358;8.256;2022-07-21T03:36:24;19.30;;;17.35;;
27051;SDS011;14601;49.358;8.256;2022-07-21T03:39:28;22.60;;;19.33;;
27051;SDS011;14601;49.358;8.256;2022-07-21T03:42:29;22.55;;;20.35;;
27051;SDS011;14601;49.358;8.256;2022-07-21T03:45:32;24.05;;;21.75;;
27051;SDS011;14601;49.358;8.256;2022-07-21T03:48:35;25.20;;;22.00;;
27051;SDS011;14601;49.358;8.256;2022-07-21T03:51:37;24.35;;;21.95;;
27051;SDS011;14601;49.358;8.256;2022-07-21T03:54:40;25.52;;;22.08;;
27051;SDS011;14601;49.358;8.256;2022-07-21T03:57:43;23.75;;;21.33;;
27051;SDS011;14601;49.358;8.256;2022-07-21T04:00:46;24.75;;;22.45;;
27051;SDS011;14601;49.358;8.256;2022-07-21T04:03:48;24.05;;;21.83;;
27051;SDS011;14601;49.358;8.256;2022-07-21T04:06:50;23.77;;;21.60;;
27051;SDS011;14601;49.358;8.256;2022-07-21T04:09:53;23.58;;;21.38;;
27051;SDS011;14601;49.358;8.256;2022-07-21T04:12:56;22.05;;;19.83;;
27051;SDS011;14601;49.358;8.256;2022-07-21T04:15:59;23.25;;;18.73;;
27051;SDS011;14601;49.358;8.256;2022-07-21T04:19:01;22.40;;;20.10;;
27051;SDS011;14601;49.358;8.256;2022-07-21T04:22:02;18.85;;;17.00;;
27051;SDS011;14601;49.358;8.256;2022-07-21T04:25:06;17.95;;;16.30;;
27051;SDS011;14601;49.358;8.256;2022-07-21T04:28:09;18.80;;;16.88;;
27051;SDS011;14601;49.358;8.256;2022-07-21T04:31:11;18.50;;;16.80;;
27051;SDS011;14601;49.358;8.256;2022-07-21T04:34:13;18.33;;;16.55;;
27051;SDS011;14601;49.358;8.256;2022-07-21T04:37:15;18.15;;;16.35;;
27051;SDS011;14601;49.358;8.256;2022-07-21T04:40:19;18.10;;;15.82;;
27051;SDS011;14601;49.358;8.256;2022-07-21T04:43:21;19.63;;;17.55;;
27051;SDS011;14601;49.358;8.256;2022-07-21T04:46:23;18.15;;;16.48;;
27051;SDS011;14601;49.358;8.256;2022-07-21T04:49:25;19.92;;;18.02;;
27051;SDS011;14601;49.358;8.256;2022-07-21T04:52:26;18.23;;;16.42;;
27051;SDS011;14601;49.358;8.256;2022-07-21T04:55:30;17.60;;;16.00;;
27051;SDS011;14601;49.358;8.256;2022-07-21T04:58:32;18.50;;;16.80;;
27051;SDS011;14601;49.358;8.256;2022-07-21T05:01:34;19.35;;;17.40;;
27051;SDS011;14601;49.358;8.256;2022-07-21T05:04:36;17.90;;;16.17;;
27051;SDS011;14601;49.358;8.256;2022-07-21T05:07:38;18.95;;;16.00;;
27051;SDS011;14601;49.358;8.256;2022-07-21T05:10:42;18.98;;;16.02;;
27051;SDS011;14601;49.358;8.256;2022-07-21T05:13:43;17.58;;;15.32;;
27051;SDS011;14601;49.358;8.256;2022-07-21T05:16:45;18.30;;;16.50;;
27051;SDS011;14601;49.358;8.256;2022-07-21T05:19:47;20.17;;;16.70;;
27051;SDS011;14601;49.358;8.256;2022-07-21T05:22:50;18.08;;;16.23;;
27051;SDS011;14601;49.358;8.256;2022-07-21T05:25:53;17.17;;;15.60;;
27051;SDS011;14601;49.358;8.256;2022-07-21T05:28:55;17.63;;;15.82;;
27051;SDS011;14601;49.358;8.256;2022-07-21T05:31:57;20.13;;;16.17;;
27051;SDS011;14601;49.358;8.256;2022-07-21T05:34:59;19.95;;;17.77;;
27051;SDS011;14601;49.358;8.256;2022-07-21T05:38:01;18.25;;;16.35;;
27051;SDS011;14601;49.358;8.256;2022-07-21T05:41:05;18.63;;;16.85;;
27051;SDS011;14601;49.358;8.256;2022-07-21T05:44:07;18.88;;;16.98;;
27051;SDS011;14601;49.358;8.256;2022-07-21T05:47:09;17.85;;;16.08;;
27051;SDS011;14601;49.358;8.256;2022-07-21T05:50:11;18.85;;;16.85;;
27051;SDS011;14601;49.358;8.256;2022-07-21T05:53:13;19.60;;;17.00;;
27051;SDS011;14601;49.358;8.256;2022-07-21T05:56:16;18.10;;;16.20;;
27051;SDS011;14601;49.358;8.256;2022-07-21T05:59:18;18.88;;;16.95;;
27051;SDS011;14601;49.358;8.256;2022-07-21T06:02:20;19.98;;;17.90;;
27051;SDS011;14601;49.358;8.256;2022-07-21T06:05:23;22.08;;;18.27;;
27051;SDS011;14601;49.358;8.256;2022-07-21T06:08:25;24.73;;;22.33;;
27051;SDS011;14601;49.358;8.256;2022-07-21T06:11:28;19.67;;;17.42;;
27051;SDS011;14601;49.358;8.256;2022-07-21T06:14:30;18.23;;;16.33;;
27051;SDS011;14601;49.358;8.256;2022-07-21T06:17:37;19.67;;;17.58;;
27051;SDS011;14601;49.358;8.256;2022-07-21T06:20:40;19.80;;;16.13;;
27051;SDS011;14601;49.358;8.256;2022-07-21T06:23:42;16.15;;;14.52;;
27051;SDS011;14601;49.358;8.256;2022-07-21T06:26:45;16.83;;;15.15;;
27051;SDS011;14601;49.358;8.256;2022-07-21T06:29:47;18.00;;;14.32;;
27051;SDS011;14601;49.358;8.256;2022-07-21T06:32:48;15.25;;;13.68;;
27051;SDS011;14601;49.358;8.256;2022-07-21T06:35:50;16.35;;;13.65;;
27051;SDS011;14601;49.358;8.256;2022-07-21T06:38:53;14.00;;;12.63;;
27051;SDS011;14601;49.358;8.256;2022-07-21T06:41:56;15.52;;;12.98;;
27051;SDS011;14601;49.358;8.256;2022-07-21T06:45:03;18.17;;;14.30;;
27051;SDS011;14601;49.358;8.256;2022-07-21T06:48:06;18.73;;;14.20;;
27051;SDS011;14601;49.358;8.256;2022-07-21T06:51:09;16.50;;;13.70;;
27051;SDS011;14601;49.358;8.256;2022-07-21T06:54:11;14.68;;;13.23;;
27051;SDS011;14601;49.358;8.256;2022-07-21T06:57:14;14.35;;;12.85;;
27051;SDS011;14601;49.358;8.256;2022-07-21T07:00:16;12.50;;;11.30;;
27051;SDS011;14601;49.358;8.256;2022-07-21T07:03:19;13.18;;;11.60;;
27051;SDS011;14601;49.358;8.256;2022-07-21T07:06:21;15.57;;;11.18;;
27051;SDS011;14601;49.358;8.256;2022-07-21T07:09:23;16.45;;;11.60;;
27051;SDS011;14601;49.358;8.256;2022-07-21T07:12:26;12.15;;;10.60;;
27051;SDS011;14601;49.358;8.256;2022-07-21T07:15:28;12.93;;;10.63;;
27051;SDS011;14601;49.358;8.256;2022-07-21T07:18:30;14.32;;;10.90;;
27051;SDS011;14601;49.358;8.256;2022-07-21T07:21:32;12.25;;;11.10;;
27051;SDS011;14601;49.358;8.256;2022-07-21T07:24:34;13.70;;;11.15;;
27051;SDS011;14601;49.358;8.256;2022-07-21T07:27:37;12.95;;;11.07;;
27051;SDS011;14601;49.358;8.256;2022-07-21T07:30:40;11.40;;;10.25;;
27051;SDS011;14601;49.358;8.256;2022-07-21T07:33:42;15.45;;;10.98;;
27051;SDS011;14601;49.358;8.256;2022-07-21T07:36:44;9.15;;;8.25;;
27051;SDS011;14601;49.358;8.256;2022-07-21T07:39:46;8.93;;;7.85;;
27051;SDS011;14601;49.358;8.256;2022-07-21T07:42:49;8.07;;;7.28;;
27051;SDS011;14601;49.358;8.256;2022-07-21T07:45:51;7.60;;;6.55;;
27051;SDS011;14601;49.358;8.256;2022-07-21T07:48:53;8.98;;;6.90;;
27051;SDS011;14601;49.358;8.256;2022-07-21T07:51:56;7.00;;;6.40;;
27051;SDS011;14601;49.358;8.256;2022-07-21T07:54:58;13.02;;;6.40;;
27051;SDS011;14601;49.358;8.256;2022-07-21T07:58:05;7.15;;;6.45;;
27051;SDS011;14601;49.358;8.256;2022-07-21T08:01:07;9.45;;;6.20;;
27051;SDS011;14601;49.358;8.256;2022-07-21T08:04:09;6.70;;;5.90;;
27051;SDS011;14601;49.358;8.256;2022-07-21T08:07:14;8.32;;;6.40;;
27051;SDS011;14601;49.358;8.256;2022-07-21T08:10:15;7.35;;;6.25;;
27051;SDS011;14601;49.358;8.256;2022-07-21T08:13:19;6.97;;;6.28;;
27051;SDS011;14601;49.358;8.256;2022-07-21T08:16:21;7.80;;;6.50;;
27051;SDS011;14601;49.358;8.256;2022-07-21T08:19:24;6.20;;;5.70;;
27051;SDS011;14601;49.358;8.256;2022-07-21T08:22:26;7.35;;;6.00;;
27051;SDS011;14601;49.358;8.256;2022-07-21T08:25:28;7.07;;;6.38;;
27051;SDS011;14601;49.358;8.256;2022-07-21T08:28:32;6.85;;;6.20;;
27051;SDS011;14601;49.358;8.256;2022-07-21T08:31:33;9.93;;;6.40;;
27051;SDS011;14601;49.358;8.256;2022-07-21T08:34:36;9.23;;;6.53;;
27051;SDS011;14601;49.358;8.256;2022-07-21T08:37:38;6.22;;;5.63;;
27051;SDS011;14601;49.358;8.256;2022-07-21T08:40:41;9.93;;;5.78;;
27051;SDS011;14601;49.358;8.256;2022-07-21T08:43:46;10.77;;;5.70;;
27051;SDS011;14601;49.358;8.256;2022-07-21T08:49:52;6.53;;;5.60;;
27051;SDS011;14601;49.358;8.256;2022-07-21T08:52:55;6.68;;;6.00;;
27051;SDS011;14601;49.358;8.256;2022-07-21T08:55:57;6.10;;;5.40;;
27051;SDS011;14601;49.358;8.256;2022-07-21T08:59:01;8.55;;;5.78;;
27051;SDS011;14601;49.358;8.256;2022-07-21T09:02:03;7.47;;;5.03;;
27051;SDS011;14601;49.358;8.256;2022-07-21T09:05:05;6.40;;;5.78;;
27051;SDS011;14601;49.358;8.256;2022-07-21T09:08:09;4.77;;;4.37;;
27051;SDS011;14601;49.358;8.256;2022-07-21T09:11:12;5.93;;;4.75;;
27051;SDS011;14601;49.358;8.256;2022-07-21T09:14:18;6.13;;;5.18;;
27051;SDS011;14601;49.358;8.256;2022-07-21T09:17:22;5.40;;;4.90;;
27051;SDS011;14601;49.358;8.256;2022-07-21T09:20:24;5.20;;;4.70;;
27051;SDS011;14601;49.358;8.256;2022-07-21T09:23:26;5.22;;;4.50;;
27051;SDS011;14601;49.358;8.256;2022-07-21T09:26:28;18.83;;;5.25;;
27051;SDS011;14601;49.358;8.256;2022-07-21T09:29:36;4.60;;;4.00;;
27051;SDS011;14601;49.358;8.256;2022-07-21T09:32:42;6.47;;;4.47;;
27051;SDS011;14601;49.358;8.256;2022-07-21T09:35:51;4.70;;;3.90;;
27051;SDS011;14601;49.358;8.256;2022-07-21T09:38:57;4.93;;;4.38;;
27051;SDS011;14601;49.358;8.256;2022-07-21T09:42:11;4.68;;;3.92;;
27051;SDS011;14601;49.358;8.256;2022-07-21T09:45:16;4.97;;;4.15;;
27051;SDS011;14601;49.358;8.256;2022-07-21T09:48:28;4.57;;;4.18;;
27051;SDS011;14601;49.358;8.256;2022-07-21T09:51:32;5.15;;;3.85;;
27051;SDS011;14601;49.358;8.256;2022-07-21T09:54:35;5.03;;;4.60;;
27051;SDS011;14601;49.358;8.256;2022-07-21T09:57:37;4.82;;;4.35;;
27051;SDS011;14601;49.358;8.256;2022-07-21T10:00:40;4.38;;;4.03;;
27051;SDS011;14601;49.358;8.256;2022-07-21T10:03:43;6.20;;;4.40;;
27051;SDS011;14601;49.358;8.256;2022-07-21T10:06:46;4.68;;;4.28;;
27051;SDS011;14601;49.358;8.256;2022-07-21T10:09:48;5.18;;;4.18;;
27051;SDS011;14601;49.358;8.256;2022-07-21T10:12:51;4.97;;;4.35;;
27051;SDS011;14601;49.358;8.256;2022-07-21T10:15:54;5.93;;;4.20;;
27051;SDS011;14601;49.358;8.256;2022-07-21T10:18:58;4.97;;;4.47;;
27051;SDS011;14601;49.358;8.256;2022-07-21T10:22:08;4.75;;;4.35;;
27051;SDS011;14601;49.358;8.256;2022-07-21T10:25:14;4.93;;;4.53;;
27051;SDS011;14601;49.358;8.256;2022-07-21T10:28:17;5.32;;;4.55;;
27051;SDS011;14601;49.358;8.256;2022-07-21T10:31:23;6.88;;;4.60;;
27051;SDS011;14601;49.358;8.256;2022-07-21T10:34:33;5.20;;;4.70;;
27051;SDS011;14601;49.358;8.256;2022-07-21T10:37:43;5.68;;;4.43;;
27051;SDS011;14601;49.358;8.256;2022-07-21T10:40:49;6.30;;;4.40;;
27051;SDS011;14601;49.358;8.256;2022-07-21T10:43:51;4.80;;;4.40;;
27051;SDS011;14601;49.358;8.256;2022-07-21T10:46:59;4.93;;;4.30;;
27051;SDS011;14601;49.358;8.256;2022-07-21T10:50:05;6.40;;;4.65;;
27051;SDS011;14601;49.358;8.256;2022-07-21T10:53:11;7.28;;;5.00;;
27051;SDS011;14601;49.358;8.256;2022-07-21T10:56:25;6.65;;;5.28;;
27051;SDS011;14601;49.358;8.256;2022-07-21T10:59:30;4.63;;;4.22;;
27051;SDS011;14601;49.358;8.256;2022-07-21T11:03:15;6.70;;;5.05;;
27051;SDS011;14601;49.358;8.256;2022-07-21T11:06:23;6.63;;;4.88;;
27051;SDS011;14601;49.358;8.256;2022-07-21T11:09:27;7.47;;;4.97;;
27051;SDS011;14601;49.358;8.256;2022-07-21T11:15:57;6.45;;;5.22;;
27051;SDS011;14601;49.358;8.256;2022-07-21T11:19:01;5.63;;;5.07;;
27051;SDS011;14601;49.358;8.256;2022-07-21T11:22:04;7.50;;;4.95;;
27051;SDS011;14601;49.358;8.256;2022-07-21T11:25:10;5.80;;;4.72;;
27051;SDS011;14601;49.358;8.256;2022-07-21T11:28:17;8.57;;;5.03;;
27051;SDS011;14601;49.358;8.256;2022-07-21T11:34:25;6.80;;;4.30;;
27051;SDS011;14601;49.358;8.256;2022-07-21T11:37:39;4.75;;;4.35;;
27051;SDS011;14601;49.358;8.256;2022-07-21T11:40:43;6.90;;;4.63;;
27051;SDS011;14601;49.358;8.256;2022-07-21T11:43:45;4.80;;;4.40;;
27051;SDS011;14601;49.358;8.256;2022-07-21T11:46:49;5.40;;;4.90;;
27051;SDS011;14601;49.358;8.256;2022-07-21T11:49:54;5.60;;;4.70;;
27051;SDS011;14601;49.358;8.256;2022-07-21T11:52:57;6.22;;;4.82;;
27051;SDS011;14601;49.358;8.256;2022-07-21T11:55:59;5.68;;;5.10;;
27051;SDS011;14601;49.358;8.256;2022-07-21T11:59:08;7.53;;;4.95;;
27051;SDS011;14601;49.358;8.256;2022-07-21T12:02:12;6.28;;;4.82;;
27051;SDS011;14601;49.358;8.256;2022-07-21T12:05:17;4.70;;;4.22;;
27051;SDS011;14601;49.358;8.256;2022-07-21T12:08:19;5.63;;;4.50;;
27051;SDS011;14601;49.358;8.256;2022-07-21T12:11:21;7.40;;;4.82;;
27051;SDS011;14601;49.358;8.256;2022-07-21T12:14:43;5.78;;;5.15;;
27051;SDS011;14601;49.358;8.256;2022-07-21T12:17:49;5.18;;;4.68;;
27051;SDS011;14601;49.358;8.256;2022-07-21T12:21:01;5.35;;;4.85;;
27051;SDS011;14601;49.358;8.256;2022-07-21T12:24:05;5.15;;;4.40;;
27051;SDS011;14601;49.358;8.256;2022-07-21T12:27:09;4.70;;;4.30;;
27051;SDS011;14601;49.358;8.256;2022-07-21T12:33:33;4.95;;;4.45;;
27051;SDS011;14601;49.358;8.256;2022-07-21T12:36:36;4.80;;;4.30;;
27051;SDS011;14601;49.358;8.256;2022-07-21T12:39:39;7.28;;;4.50;;
27051;SDS011;14601;49.358;8.256;2022-07-21T12:43:03;4.35;;;3.97;;
27051;SDS011;14601;49.358;8.256;2022-07-21T12:46:09;4.95;;;4.50;;
27051;SDS011;14601;49.358;8.256;2022-07-21T12:49:12;7.70;;;4.88;;
27051;SDS011;14601;49.358;8.256;2022-07-21T12:52:15;6.13;;;4.22;;
27051;SDS011;14601;49.358;8.256;2022-07-21T12:55:18;12.05;;;4.50;;
27051;SDS011;14601;49.358;8.256;2022-07-21T12:58:20;5.78;;;4.30;;
27051;SDS011;14601;49.358;8.256;2022-07-21T13:01:22;6.70;;;4.40;;
27051;SDS011;14601;49.358;8.256;2022-07-21T13:04:28;5.00;;;4.38;;
27051;SDS011;14601;49.358;8.256;2022-07-21T13:07:32;8.52;;;4.57;;
27051;SDS011;14601;49.358;8.256;2022-07-21T13:10:34;5.43;;;4.85;;
27051;SDS011;14601;49.358;8.256;2022-07-21T13:13:36;9.43;;;4.90;;
27051;SDS011;14601;49.358;8.256;2022-07-21T13:16:38;5.88;;;4.82;;
27051;SDS011;14601;49.358;8.256;2022-07-21T13:19:40;5.50;;;4.88;;
27051;SDS011;14601;49.358;8.256;2022-07-21T13:22:43;6.00;;;5.18;;
27051;SDS011;14601;49.358;8.256;2022-07-21T13:25:45;5.82;;;5.07;;
27051;SDS011;14601;49.358;8.256;2022-07-21T13:28:48;5.40;;;4.90;;
27051;SDS011;14601;49.358;8.256;2022-07-21T13:31:50;9.75;;;5.25;;
27051;SDS011;14601;49.358;8.256;2022-07-21T13:34:52;6.28;;;5.30;;
27051;SDS011;14601;49.358;8.256;2022-07-21T13:37:56;5.60;;;4.72;;
27051;SDS011;14601;49.358;8.256;2022-07-21T13:44:01;5.18;;;4.70;;
27051;SDS011;14601;49.358;8.256;2022-07-21T13:47:03;5.32;;;4.82;;
27051;SDS011;14601;49.358;8.256;2022-07-21T13:50:05;6.78;;;4.35;;
27051;SDS011;14601;49.358;8.256;2022-07-21T13:53:09;4.95;;;4.38;;
27051;SDS011;14601;49.358;8.256;2022-07-21T13:56:11;5.80;;;4.15;;
27051;SDS011;14601;49.358;8.256;2022-07-21T13:59:17;5.13;;;4.55;;
27051;SDS011;14601;49.358;8.256;2022-07-21T14:02:19;7.03;;;4.70;;
27051;SDS011;14601;49.358;8.256;2022-07-21T14:05:22;4.72;;;4.25;;
27051;SDS011;14601;49.358;8.256;2022-07-21T14:08:25;4.85;;;4.45;;
27051;SDS011;14601;49.358;8.256;2022-07-21T14:11:27;4.60;;;3.90;;
27051;SDS011;14601;49.358;8.256;2022-07-21T14:14:30;5.50;;;4.18;;
27051;SDS011;14601;49.358;8.256;2022-07-21T14:17:32;4.72;;;4.32;;
27051;SDS011;14601;49.358;8.256;2022-07-21T14:20:34;5.80;;;4.63;;
27051;SDS011;14601;49.358;8.256;2022-07-21T14:23:37;4.95;;;4.45;;
27051;SDS011;14601;49.358;8.256;2022-07-21T14:26:39;5.40;;;4.90;;
27051;SDS011;14601;49.358;8.256;2022-07-21T14:29:41;8.02;;;5.00;;
27051;SDS011;14601;49.358;8.256;2022-07-21T14:32:43;6.25;;;5.20;;
27051;SDS011;14601;49.358;8.256;2022-07-21T14:35:46;7.13;;;5.18;;
27051;SDS011;14601;49.358;8.256;2022-07-21T14:38:51;7.65;;;4.85;;
27051;SDS011;14601;49.358;8.256;2022-07-21T14:41:53;5.72;;;4.95;;
27051;SDS011;14601;49.358;8.256;2022-07-21T14:44:56;5.55;;;4.57;;
27051;SDS011;14601;49.358;8.256;2022-07-21T14:47:58;5.88;;;5.18;;
27051;SDS011;14601;49.358;8.256;2022-07-21T14:51:02;5.32;;;4.82;;
27051;SDS011;14601;49.358;8.256;2022-07-21T14:54:05;5.57;;;5.07;;
27051;SDS011;14601;49.358;8.256;2022-07-21T14:57:08;6.05;;;4.63;;
27051;SDS011;14601;49.358;8.256;2022-07-21T15:00:11;6.13;;;4.88;;
27051;SDS011;14601;49.358;8.256;2022-07-21T15:03:14;7.22;;;4.97;;
27051;SDS011;14601;49.358;8.256;2022-07-21T15:06:16;7.93;;;4.80;;
27051;SDS011;14601;49.358;8.256;2022-07-21T15:09:20;5.72;;;5.22;;
27051;SDS011;14601;49.358;8.256;2022-07-21T15:12:22;6.47;;;5.53;;
27051;SDS011;14601;49.358;8.256;2022-07-21T15:15:24;6.50;;;5.35;;
27051;SDS011;14601;49.358;8.256;2022-07-21T15:18:26;7.45;;;5.15;;
27051;SDS011;14601;49.358;8.256;2022-07-21T15:21:28;5.43;;;4.80;;
27051;SDS011;14601;49.358;8.256;2022-07-21T15:24:31;5.70;;;5.20;;
27051;SDS011;14601;49.358;8.256;2022-07-21T15:27:33;7.78;;;5.15;;
27051;SDS011;14601;49.358;8.256;2022-07-21T15:30:35;5.80;;;4.47;;
27051;SDS011;14601;49.358;8.256;2022-07-21T15:33:37;5.55;;;4.10;;
27051;SDS011;14601;49.358;8.256;2022-07-21T15:36:39;6.20;;;4.80;;
27051;SDS011;14601;49.358;8.256;2022-07-21T15:39:43;8.68;;;5.20;;
27051;SDS011;14601;49.358;8.256;2022-07-21T15:42:45;5.22;;;4.72;;
27051;SDS011;14601;49.358;8.256;2022-07-21T15:45:47;7.13;;;5.28;;
27051;SDS011;14601;49.358;8.256;2022-07-21T15:48:49;5.80;;;4.78;;
27051;SDS011;14601;49.358;8.256;2022-07-21T15:51:52;10.25;;;5.13;;
27051;SDS011;14601;49.358;8.256;2022-07-21T15:54:56;8.02;;;5.07;;
27051;SDS011;14601;49.358;8.256;2022-07-21T15:57:58;5.93;;;5.32;;
27051;SDS011;14601;49.358;8.256;2022-07-21T16:01:00;6.15;;;5.10;;
27051;SDS011;14601;49.358;8.256;2022-07-21T16:04:02;10.10;;;7.03;;
27051;SDS011;14601;49.358;8.256;2022-07-21T16:07:05;7.13;;;5.68;;
27051;SDS011;14601;49.358;8.256;2022-07-21T16:10:09;7.30;;;5.57;;
27051;SDS011;14601;49.358;8.256;2022-07-21T16:13:13;8.25;;;4.75;;
27051;SDS011;14601;49.358;8.256;2022-07-21T16:16:16;4.90;;;4.40;;
27051;SDS011;14601;49.358;8.256;2022-07-21T16:19:18;5.28;;;4.20;;
27051;SDS011;14601;49.358;8.256;2022-07-21T16:22:20;6.28;;;4.63;;
27051;SDS011;14601;49.358;8.256;2022-07-21T16:25:23;6.25;;;4.85;;
27051;SDS011;14601;49.358;8.256;2022-07-21T16:28:26;8.82;;;5.28;;
27051;SDS011;14601;49.358;8.256;2022-07-21T16:31:28;5.88;;;4.88;;
27051;SDS011;14601;49.358;8.256;2022-07-21T16:34:30;5.70;;;5.03;;
27051;SDS011;14601;49.358;8.256;2022-07-21T16:37:34;5.90;;;4.60;;
27051;SDS011;14601;49.358;8.256;2022-07-21T16:40:37;6.03;;;4.38;;
27051;SDS011;14601;49.358;8.256;2022-07-21T16:43:39;6.53;;;4.70;;
27051;SDS011;14601;49.358;8.256;2022-07-21T16:46:42;5.75;;;5.00;;
27051;SDS011;14601;49.358;8.256;2022-07-21T16:49:44;6.57;;;4.30;;
27051;SDS011;14601;49.358;8.256;2022-07-21T16:52:46;4.90;;;4.47;;
27051;SDS011;14601;49.358;8.256;2022-07-21T16:55:49;5.38;;;4.40;;
27051;SDS011;14601;49.358;8.256;2022-07-21T16:58:51;6.43;;;4.50;;
27051;SDS011;14601;49.358;8.256;2022-07-21T17:01:53;6.75;;;4.60;;
27051;SDS011;14601;49.358;8.256;2022-07-21T17:04:55;4.85;;;4.38;;
27051;SDS011;14601;49.358;8.256;2022-07-21T17:07:58;5.20;;;4.70;;
27051;SDS011;14601;49.358;8.256;2022-07-21T17:11:01;6.55;;;4.72;;
27051;SDS011;14601;49.358;8.256;2022-07-21T17:14:06;5.07;;;4.40;;
27051;SDS011;14601;49.358;8.256;2022-07-21T17:17:10;5.45;;;4.18;;
27051;SDS011;14601;49.358;8.256;2022-07-21T17:20:12;5.55;;;4.80;;
27051;SDS011;14601;49.358;8.256;2022-07-21T17:23:14;4.93;;;4.53;;
27051;SDS011;14601;49.358;8.256;2022-07-21T17:26:18;7.10;;;4.70;;
27051;SDS011;14601;49.358;8.256;2022-07-21T17:29:21;4.80;;;4.30;;
27051;SDS011;14601;49.358;8.256;2022-07-21T17:32:23;5.90;;;4.53;;
27051;SDS011;14601;49.358;8.256;2022-07-21T17:35:27;6.30;;;4.70;;
27051;SDS011;14601;49.358;8.256;2022-07-21T17:38:29;5.35;;;4.30;;
27051;SDS011;14601;49.358;8.256;2022-07-21T17:41:33;5.00;;;4.50;;
27051;SDS011;14601;49.358;8.256;2022-07-21T17:44:34;6.55;;;5.10;;
27051;SDS011;14601;49.358;8.256;2022-07-21T17:47:36;6.32;;;4.80;;
27051;SDS011;14601;49.358;8.256;2022-07-21T17:50:39;5.45;;;4.43;;
27051;SDS011;14601;49.358;8.256;2022-07-21T17:53:41;4.97;;;4.47;;
27051;SDS011;14601;49.358;8.256;2022-07-21T17:56:44;5.40;;;4.90;;
27051;SDS011;14601;49.358;8.256;2022-07-21T17:59:46;5.70;;;4.93;;
27051;SDS011;14601;49.358;8.256;2022-07-21T18:02:48;4.88;;;4.38;;
27051;SDS011;14601;49.358;8.256;2022-07-21T18:05:50;6.50;;;4.70;;
27051;SDS011;14601;49.358;8.256;2022-07-21T18:08:52;7.28;;;4.40;;
27051;SDS011;14601;49.358;8.256;2022-07-21T18:11:57;5.78;;;4.90;;
27051;SDS011;14601;49.358;8.256;2022-07-21T18:14:59;7.25;;;4.70;;
27051;SDS011;14601;49.358;8.256;2022-07-21T18:18:02;5.97;;;4.57;;
27051;SDS011;14601;49.358;8.256;2022-07-21T18:21:05;7.10;;;4.93;;
27051;SDS011;14601;49.358;8.256;2022-07-21T18:24:08;5.85;;;5.13;;